createdAt,value
2022-09-07T00:01:01.355Z,9.98
2022-09-07T00:03:28.259Z,15.02
2022-09-07T00:05:55.003Z,16.73
2022-09-07T00:08:24.375Z,21.63
2022-09-07T00:10:53.382Z,13.52
2022-09-07T00:13:20.345Z,15.07
2022-09-07T00:15:47.005Z,19.17
2022-09-07T00:18:13.585Z,14.95
2022-09-07T00:20:40.120Z,12.57
2022-09-07T00:23:06.900Z,10.68
2022-09-07T00:25:39.096Z,8.02
2022-09-07T00:28:08.065Z,16.08
2022-09-07T00:30:40.445Z,12.70
2022-09-07T00:33:07.001Z,14.70
2022-09-07T00:35:33.560Z,10.32
2022-09-07T00:38:00.276Z,15.32
2022-09-07T00:40:26.891Z,13.40
2022-09-07T00:42:53.464Z,17.55
2022-09-07T00:45:21.257Z,12.38
2022-09-07T00:47:54.528Z,17.00
2022-09-07T00:50:23.971Z,14.70
2022-09-07T00:52:59.954Z,11.73
2022-09-07T00:55:27.684Z,12.07
2022-09-07T00:57:56.377Z,21.23
2022-09-07T01:00:23.516Z,14.93
2022-09-07T01:02:54.178Z,14.50
2022-09-07T01:05:33.246Z,12.80
2022-09-07T01:07:59.831Z,21.20
2022-09-07T01:10:30.679Z,14.95
2022-09-07T01:12:58.265Z,13.35
2022-09-07T01:15:48.577Z,14.15
2022-09-07T01:18:33.280Z,13.50
2022-09-07T01:21:11.900Z,11.23
2022-09-07T01:24:09.142Z,19.13
2022-09-07T01:26:48.130Z,14.23
2022-09-07T01:29:39.884Z,16.92
2022-09-07T01:32:21.441Z,11.57
2022-09-07T01:34:53.289Z,14.38
2022-09-07T01:37:38.282Z,11.18
2022-09-07T01:40:15.523Z,10.55
2022-09-07T01:42:52.860Z,12.18
2022-09-07T01:45:25.593Z,14.20
2022-09-07T01:47:56.504Z,14.48
2022-09-07T01:50:32.084Z,17.20
2022-09-07T01:53:07.555Z,16.17
2022-09-07T01:55:45.611Z,12.68
2022-09-07T01:58:24.275Z,13.80
2022-09-07T02:01:07.768Z,8.25
2022-09-07T02:03:49.603Z,20.75
2022-09-07T02:06:51.937Z,11.60
2022-09-07T02:11:50.405Z,15.00
2022-09-07T02:14:16.944Z,21.85
2022-09-07T02:17:00.312Z,14.90
2022-09-07T02:19:33.432Z,14.60
2022-09-07T02:22:05.455Z,15.80
2022-09-07T02:29:34.511Z,21.35
2022-09-07T02:32:01.541Z,12.60
2022-09-07T02:34:28.144Z,25.20
2022-09-07T02:36:55.729Z,17.33
2022-09-07T02:39:22.343Z,13.18
2022-09-07T02:41:48.882Z,15.68
2022-09-07T02:44:25.218Z,17.33
2022-09-07T02:47:20.418Z,16.60
2022-09-07T02:50:27.576Z,13.18
2022-09-07T02:52:56.827Z,19.40
2022-09-07T02:55:47.713Z,19.15
2022-09-07T02:58:39.890Z,15.93
2022-09-07T03:01:06.579Z,22.40
2022-09-07T03:03:54.807Z,19.95
2022-09-07T03:06:39.595Z,15.18
2022-09-07T03:09:13.150Z,22.38
2022-09-07T03:11:39.726Z,17.15
2022-09-07T03:14:22.611Z,11.95
2022-09-07T03:16:51.314Z,26.30
2022-09-07T03:19:18.463Z,18.98
2022-09-07T03:21:45.604Z,13.80
2022-09-07T03:24:12.185Z,17.50
2022-09-07T03:26:43.456Z,12.93
2022-09-07T03:29:10.077Z,17.02
2022-09-07T03:31:36.868Z,13.25
2022-09-07T03:34:04.030Z,16.17
2022-09-07T03:36:31.655Z,16.27
2022-09-07T03:39:01.420Z,11.70
2022-09-07T03:41:28.489Z,12.77
2022-09-07T03:43:55.211Z,16.05
2022-09-07T03:46:21.908Z,15.63
2022-09-07T03:48:50.171Z,22.50
2022-09-07T03:51:18.166Z,17.20
2022-09-07T03:53:46.362Z,15.50
2022-09-07T03:56:18.446Z,14.18
2022-09-07T04:01:15.999Z,12.50
2022-09-07T04:03:43.824Z,15.70
2022-09-07T04:06:11.073Z,17.90
2022-09-07T04:08:38.543Z,16.92
2022-09-07T04:11:06.966Z,12.10
2022-09-07T04:13:35.936Z,9.32
2022-09-07T04:16:19.833Z,16.13
2022-09-07T04:18:47.001Z,15.25
2022-09-07T04:21:13.769Z,11.30
2022-09-07T04:23:41.936Z,10.48
2022-09-07T04:26:36.043Z,10.13
2022-09-07T04:29:04.223Z,11.63
2022-09-07T04:31:34.275Z,7.60
2022-09-07T04:34:01.301Z,10.32
2022-09-07T04:36:28.141Z,11.43
2022-09-07T04:38:57.474Z,7.75
2022-09-07T04:41:24.251Z,8.05
2022-09-07T04:43:54.531Z,14.77
2022-09-07T04:46:30.099Z,7.32
2022-09-07T04:48:59.221Z,8.95
2022-09-07T04:51:28.993Z,3.80
2022-09-07T04:53:57.486Z,6.30
2022-09-07T04:56:24.236Z,10.00
2022-09-07T04:58:51.498Z,5.82
2022-09-07T05:01:20.973Z,7.75
2022-09-07T05:03:48.098Z,6.22
2022-09-07T05:06:16.653Z,5.68
2022-09-07T05:08:45.839Z,5.40
2022-09-07T05:11:14.030Z,7.53
2022-09-07T05:13:40.938Z,6.43
2022-09-07T05:16:18.859Z,8.57
2022-09-07T05:18:50.048Z,6.30
2022-09-07T05:21:19.310Z,3.13
2022-09-07T05:23:49.209Z,6.25
2022-09-07T05:26:15.779Z,3.60
2022-09-07T05:28:42.455Z,5.18
2022-09-07T05:31:18.519Z,7.30
2022-09-07T05:36:33.568Z,8.57
2022-09-07T05:39:00.187Z,8.35
2022-09-07T05:41:27.403Z,10.85
2022-09-07T05:46:41.599Z,9.02
2022-09-07T05:49:08.397Z,6.35
2022-09-07T05:51:37.034Z,8.95
2022-09-07T05:54:04.111Z,11.45
2022-09-07T05:56:33.339Z,10.18
2022-09-07T05:58:59.879Z,5.75
2022-09-07T06:01:26.476Z,5.82
2022-09-07T06:03:53.088Z,8.65
2022-09-07T06:06:19.708Z,5.47
2022-09-07T06:08:49.259Z,6.38
2022-09-07T06:11:18.848Z,6.00
2022-09-07T06:13:45.505Z,6.18
2022-09-07T06:16:14.077Z,8.40
2022-09-07T06:18:43.417Z,7.25
2022-09-07T06:21:18.624Z,10.15
2022-09-07T06:23:46.235Z,9.75
2022-09-07T06:26:14.042Z,6.88
2022-09-07T06:28:49.165Z,6.47
2022-09-07T06:31:19.470Z,6.68
2022-09-07T06:33:47.848Z,12.38
2022-09-07T06:36:17.296Z,8.32
2022-09-07T06:38:44.551Z,5.95
2022-09-07T06:44:02.700Z,7.20
2022-09-07T06:49:15.981Z,6.97
2022-09-07T06:51:42.578Z,9.10
2022-09-07T06:56:56.434Z,10.85
2022-09-07T06:59:22.971Z,10.10
2022-09-07T07:01:49.626Z,7.35
2022-09-07T07:04:16.296Z,9.65
2022-09-07T07:06:42.857Z,8.88
2022-09-07T07:09:13.753Z,10.65
2022-09-07T07:11:40.398Z,6.95
2022-09-07T07:14:07.065Z,9.88
2022-09-07T07:16:33.696Z,13.43
2022-09-07T07:19:00.319Z,8.45
2022-09-07T07:21:28.933Z,10.45
2022-09-07T07:24:05.015Z,11.38
2022-09-07T07:26:34.725Z,10.55
2022-09-07T07:29:02.868Z,10.40
2022-09-07T07:31:32.648Z,10.02
2022-09-07T07:33:59.423Z,10.18
2022-09-07T07:36:27.301Z,10.88
2022-09-07T07:44:18.413Z,11.55
2022-09-07T07:46:50.660Z,8.50
2022-09-07T07:49:17.632Z,10.98
2022-09-07T07:54:34.026Z,7.90
2022-09-07T07:57:00.565Z,9.18
2022-09-07T07:59:27.085Z,7.97
2022-09-07T08:01:53.890Z,8.95
2022-09-07T08:04:20.544Z,7.45
2022-09-07T08:06:47.085Z,8.18
2022-09-07T08:09:13.624Z,8.27
2022-09-07T08:11:40.612Z,7.32
2022-09-07T08:14:08.627Z,9.88
2022-09-07T08:16:36.411Z,8.95
2022-09-07T08:19:03.507Z,8.10
2022-09-07T08:21:30.073Z,7.38
2022-09-07T08:23:56.944Z,8.07
2022-09-07T08:26:23.500Z,8.43
2022-09-07T08:28:50.047Z,7.60
2022-09-07T08:31:17.712Z,7.20
2022-09-07T08:33:45.250Z,5.70
2022-09-07T08:36:13.996Z,7.63
2022-09-07T08:38:41.079Z,6.38
2022-09-07T08:41:33.542Z,8.93
2022-09-07T08:44:03.836Z,5.57
2022-09-07T08:46:38.690Z,6.35
2022-09-07T08:49:10.705Z,6.15
2022-09-07T08:54:12.523Z,7.22
2022-09-07T08:57:20.511Z,7.20
2022-09-07T08:59:46.736Z,6.15
2022-09-07T09:05:20.552Z,8.43
2022-09-07T09:06:11.241Z,6.95
2022-09-07T09:08:05.916Z,5.57
2022-09-07T09:11:00.427Z,6.88
2022-09-07T09:13:53.100Z,6.70
2022-09-07T09:16:30.677Z,6.40
2022-09-07T09:19:19.313Z,7.13
2022-09-07T09:21:46.061Z,4.45
2022-09-07T09:24:17.223Z,6.60
2022-09-07T09:29:22.770Z,4.95
2022-09-07T09:31:49.841Z,5.88
2022-09-07T09:34:23.827Z,5.40
2022-09-07T09:36:55.825Z,6.20
2022-09-07T09:39:36.988Z,7.82
2022-09-07T09:42:23.792Z,10.13
2022-09-07T09:44:50.875Z,5.80
2022-09-07T09:47:32.738Z,6.07
2022-09-07T09:50:04.999Z,6.05
2022-09-07T09:52:45.020Z,6.28
2022-09-07T09:55:36.142Z,3.88
2022-09-07T10:01:36.068Z,5.32
2022-09-07T10:04:38.450Z,5.63
2022-09-07T10:07:25.917Z,6.43
2022-09-07T10:09:54.468Z,6.43
2022-09-07T10:12:32.238Z,8.25
2022-09-07T10:15:01.327Z,3.40
2022-09-07T10:17:43.569Z,7.07
2022-09-07T10:20:15.458Z,5.05
2022-09-07T10:25:41.972Z,4.18
2022-09-07T10:28:11.611Z,7.97
2022-09-07T10:30:45.810Z,5.93
2022-09-07T10:33:28.740Z,3.63
2022-09-07T10:35:58.528Z,7.75
2022-09-07T10:38:29.508Z,2.42
2022-09-07T10:41:09.701Z,3.93
2022-09-07T10:43:47.294Z,4.65
2022-09-07T10:49:21.559Z,6.57
2022-09-07T10:52:21.344Z,4.20
2022-09-07T10:55:10.177Z,7.40
2022-09-07T10:57:55.151Z,6.05
2022-09-07T11:00:22.817Z,5.40
2022-09-07T11:03:28.942Z,6.65
2022-09-07T11:06:01.429Z,9.70
2022-09-07T11:12:08.073Z,4.90
2022-09-07T11:14:42.293Z,3.83
2022-09-07T11:17:17.105Z,4.55
2022-09-07T11:19:54.778Z,4.38
2022-09-07T11:22:28.936Z,6.43
2022-09-07T11:25:32.804Z,10.27
2022-09-07T11:28:13.022Z,3.95
2022-09-07T11:30:47.705Z,3.47
2022-09-07T11:33:24.328Z,6.20
2022-09-07T11:35:58.655Z,5.60
2022-09-07T11:38:33.797Z,3.50
2022-09-07T11:41:12.123Z,10.95
2022-09-07T11:43:45.501Z,8.98
2022-09-07T11:46:22.048Z,7.90
2022-09-07T11:48:55.765Z,3.45
2022-09-07T11:51:47.299Z,5.40
2022-09-07T11:54:29.234Z,2.65
2022-09-07T12:00:19.444Z,7.50
2022-09-07T12:03:14.057Z,4.18
2022-09-07T12:05:49.672Z,3.42
2022-09-07T12:09:01.114Z,3.13
2022-09-07T12:11:49.243Z,4.68
2022-09-07T12:14:21.916Z,4.57
2022-09-07T12:16:51.421Z,5.72
2022-09-07T12:19:28.090Z,4.72
2022-09-07T12:21:57.933Z,5.90
2022-09-07T12:24:33.757Z,3.38
2022-09-07T12:27:01.411Z,5.40
2022-09-07T12:29:29.805Z,3.83
2022-09-07T12:32:07.394Z,7.35
2022-09-07T12:34:52.263Z,5.60
2022-09-07T12:37:40.469Z,4.78
2022-09-07T12:40:34.756Z,4.30
2022-09-07T12:43:13.644Z,5.05
2022-09-07T12:45:50.785Z,15.18
2022-09-07T12:48:17.321Z,7.28
2022-09-07T12:50:59.019Z,6.25
2022-09-07T12:53:44.101Z,6.32
2022-09-07T12:56:20.164Z,3.45
2022-09-07T12:58:52.540Z,6.03
2022-09-07T13:01:41.136Z,8.55
2022-09-07T13:04:37.551Z,4.50
2022-09-07T13:07:30.778Z,5.85
2022-09-07T13:09:59.830Z,5.75
2022-09-07T13:12:54.716Z,4.50
2022-09-07T13:15:46.640Z,10.60
2022-09-07T13:18:28.593Z,4.43
2022-09-07T13:23:41.000Z,5.85
2022-09-07T13:26:11.021Z,3.15
2022-09-07T13:28:40.669Z,2.95
2022-09-07T13:31:25.001Z,5.45
2022-09-07T13:33:53.097Z,6.72
2022-09-07T13:36:45.586Z,4.55
2022-09-07T13:39:15.805Z,6.82
2022-09-07T13:41:52.323Z,4.07
2022-09-07T13:44:26.378Z,4.65
2022-09-07T13:46:58.258Z,4.10
2022-09-07T13:49:43.389Z,4.05
2022-09-07T13:52:23.183Z,6.28
2022-09-07T13:55:20.738Z,6.47
2022-09-07T13:58:01.832Z,8.70
2022-09-07T14:00:28.817Z,4.75
2022-09-07T14:03:05.401Z,4.32
2022-09-07T14:05:32.091Z,9.48
2022-09-07T14:07:58.700Z,3.75
2022-09-07T14:10:26.606Z,8.30
2022-09-07T14:13:05.242Z,3.10
2022-09-07T14:15:42.515Z,4.00
2022-09-07T14:18:31.352Z,5.15
2022-09-07T14:20:58.779Z,9.20
2022-09-07T14:23:29.979Z,6.00
2022-09-07T14:26:17.723Z,3.50
2022-09-07T14:28:47.659Z,5.15
2022-09-07T14:31:17.315Z,3.75
2022-09-07T14:34:00.856Z,3.17
2022-09-07T14:36:44.820Z,5.22
2022-09-07T14:39:15.581Z,6.60
2022-09-07T14:41:43.281Z,3.63
2022-09-07T14:44:34.080Z,6.10
2022-09-07T14:47:19.589Z,14.65
2022-09-07T14:49:52.564Z,6.97
2022-09-07T14:52:23.586Z,3.22
2022-09-07T14:54:53.817Z,4.63
2022-09-07T14:57:30.667Z,4.68
2022-09-07T14:59:58.925Z,4.85
2022-09-07T15:02:35.641Z,8.18
2022-09-07T15:05:18.624Z,4.03
2022-09-07T15:07:52.821Z,7.80
2022-09-07T15:10:23.232Z,6.43
2022-09-07T15:12:55.148Z,4.72
2022-09-07T15:17:59.036Z,4.22
2022-09-07T15:20:35.532Z,3.67
2022-09-07T15:23:16.256Z,3.97
2022-09-07T15:25:50.328Z,3.72
2022-09-07T15:34:10.665Z,3.42
2022-09-07T15:36:40.552Z,9.55
2022-09-07T15:39:14.667Z,7.88
2022-09-07T15:41:41.169Z,5.20
2022-09-07T15:44:09.099Z,5.80
2022-09-07T15:46:37.148Z,3.97
2022-09-07T15:49:04.694Z,2.35
2022-09-07T15:54:20.616Z,10.80
2022-09-07T15:59:34.926Z,13.23
2022-09-07T16:02:01.993Z,4.82
2022-09-07T16:04:29.415Z,4.88
2022-09-07T16:06:56.054Z,5.28
2022-09-07T16:09:22.713Z,3.85
2022-09-07T16:11:50.831Z,4.78
2022-09-07T16:14:17.703Z,3.33
2022-09-07T16:19:34.740Z,3.75
2022-09-07T16:22:01.900Z,6.78
2022-09-07T16:24:28.676Z,4.50
2022-09-07T16:26:55.270Z,3.28
2022-09-07T16:29:21.812Z,4.15
2022-09-07T16:34:34.943Z,4.43
2022-09-07T16:37:01.822Z,6.15
2022-09-07T16:39:32.031Z,2.28
2022-09-07T16:42:00.091Z,4.22
2022-09-07T16:44:26.774Z,6.03
2022-09-07T16:46:53.303Z,1.48
2022-09-07T16:49:19.891Z,5.18
2022-09-07T16:51:46.408Z,3.83
2022-09-07T16:54:13.992Z,1.20
2022-09-07T16:56:40.728Z,4.53
2022-09-07T16:59:11.432Z,1.80
2022-09-07T17:01:38.488Z,3.88
2022-09-07T17:04:10.302Z,1.98
2022-09-07T17:06:37.986Z,3.95
2022-09-07T17:09:04.723Z,5.13
2022-09-07T17:11:34.368Z,3.00
2022-09-07T17:14:01.453Z,2.92
2022-09-07T17:16:30.922Z,2.42
2022-09-07T17:21:46.567Z,2.15
2022-09-07T17:24:13.292Z,3.97
2022-09-07T17:26:42.235Z,2.42
2022-09-07T17:29:09.624Z,2.72
2022-09-07T17:34:24.356Z,2.67
2022-09-07T17:36:51.594Z,2.78
2022-09-07T17:39:19.312Z,3.35
2022-09-07T17:41:52.627Z,2.92
2022-09-07T17:44:19.592Z,3.00
2022-09-07T17:46:46.170Z,6.22
2022-09-07T17:49:14.531Z,3.80
2022-09-07T17:51:41.523Z,3.60
2022-09-07T17:54:13.256Z,3.10
2022-09-07T17:56:41.320Z,2.40
2022-09-07T18:01:55.927Z,1.95
2022-09-07T18:04:23.503Z,3.05
2022-09-07T18:06:50.515Z,5.90
2022-09-07T18:09:17.591Z,3.25
2022-09-07T18:11:45.863Z,2.95
2022-09-07T18:14:14.925Z,3.60
2022-09-07T18:16:43.694Z,1.60
2022-09-07T18:19:11.410Z,5.88
2022-09-07T18:21:40.807Z,2.40
2022-09-07T18:24:17.405Z,2.78
2022-09-07T18:26:44.717Z,5.45
2022-09-07T18:29:28.142Z,3.00
2022-09-07T18:31:55.948Z,8.55
2022-09-07T18:34:23.195Z,3.20
2022-09-07T18:36:50.215Z,2.30
2022-09-07T18:39:16.880Z,3.22
2022-09-07T18:41:43.406Z,3.30
2022-09-07T18:46:56.599Z,2.72
2022-09-07T18:49:23.531Z,1.73
2022-09-07T18:54:38.673Z,2.08
2022-09-07T18:57:06.723Z,2.60
2022-09-07T18:59:33.447Z,3.13
2022-09-07T19:02:03.910Z,2.05
2022-09-07T19:07:20.607Z,5.32
2022-09-07T19:09:48.369Z,5.05
2022-09-07T19:12:15.351Z,8.00
2022-09-07T19:14:42.348Z,8.68
2022-09-07T19:17:11.058Z,3.70
2022-09-07T19:19:38.881Z,5.40
2022-09-07T19:22:06.080Z,5.95
2022-09-07T19:24:33.288Z,3.85
2022-09-07T19:27:01.133Z,7.65
2022-09-07T19:29:28.416Z,6.70
2022-09-07T19:32:04.445Z,8.10
2022-09-07T19:34:39.034Z,8.63
2022-09-07T19:37:07.189Z,5.25
2022-09-07T19:39:34.156Z,4.45
2022-09-07T19:42:02.158Z,2.60
2022-09-07T19:44:28.699Z,3.72
2022-09-07T19:46:55.612Z,8.60
2022-09-07T19:49:22.586Z,3.42
2022-09-07T19:51:51.305Z,4.32
2022-09-07T19:54:17.866Z,9.05
2022-09-07T19:56:44.789Z,6.43
2022-09-07T19:59:12.455Z,9.80
2022-09-07T20:01:40.746Z,8.20
2022-09-07T20:04:13.786Z,6.32
2022-09-07T20:06:42.832Z,3.25
2022-09-07T20:09:09.469Z,3.35
2022-09-07T20:11:36.673Z,4.78
2022-09-07T20:14:03.759Z,4.82
2022-09-07T20:16:31.221Z,6.57
2022-09-07T20:18:59.584Z,5.35
2022-09-07T20:21:26.969Z,5.40
2022-09-07T20:23:53.651Z,5.05
2022-09-07T20:26:21.718Z,4.43
2022-09-07T20:29:10.661Z,4.45
2022-09-07T20:31:40.814Z,4.88
2022-09-07T20:34:08.869Z,3.45
2022-09-07T20:36:35.631Z,7.88
2022-09-07T20:39:02.190Z,3.55
2022-09-07T20:41:31.414Z,3.28
2022-09-07T20:44:00.053Z,4.97
2022-09-07T20:46:28.412Z,7.32
2022-09-07T20:48:55.194Z,2.95
2022-09-07T20:51:21.930Z,8.68
2022-09-07T20:53:49.776Z,5.50
2022-09-07T20:56:19.354Z,5.22
2022-09-07T20:58:47.557Z,6.28
2022-09-07T21:01:17.819Z,4.15
2022-09-07T21:03:49.638Z,3.20
2022-09-07T21:06:17.556Z,2.47
2022-09-07T21:08:45.393Z,5.53
2022-09-07T21:11:18.258Z,4.57
2022-09-07T21:13:44.947Z,7.50
2022-09-07T21:16:14.002Z,6.32
2022-09-07T21:18:41.821Z,6.05
2022-09-07T21:21:24.450Z,4.72
2022-09-07T21:23:59.505Z,5.95
2022-09-07T21:26:27.970Z,3.47
2022-09-07T21:28:59.227Z,4.97
2022-09-07T21:31:26.555Z,3.63
2022-09-07T21:33:55.543Z,5.85
2022-09-07T21:36:22.404Z,2.47
2022-09-07T21:38:50.025Z,7.13
2022-09-07T21:41:19.215Z,4.60
2022-09-07T21:43:45.781Z,4.50
2022-09-07T21:46:17.212Z,6.18
2022-09-07T21:48:45.509Z,3.47
2022-09-07T21:51:13.637Z,10.82
2022-09-07T21:53:40.776Z,6.43
2022-09-07T21:56:10.316Z,2.05
2022-09-07T21:58:36.833Z,6.40
2022-09-07T22:01:12.254Z,5.00
2022-09-07T22:03:40.503Z,4.10
2022-09-07T22:06:08.472Z,5.38
2022-09-07T22:08:36.500Z,3.45
2022-09-07T22:11:14.594Z,2.55
2022-09-07T22:13:41.582Z,2.20
2022-09-07T22:16:08.754Z,9.20
2022-09-07T22:18:37.924Z,1.88
2022-09-07T22:21:04.509Z,2.63
2022-09-07T22:23:34.656Z,5.10
2022-09-07T22:26:01.558Z,8.30
2022-09-07T22:28:31.622Z,7.55
2022-09-07T22:31:10.379Z,3.03
2022-09-07T22:33:37.380Z,6.25
2022-09-07T22:36:15.441Z,10.35
2022-09-07T22:38:43.811Z,4.30
2022-09-07T22:41:15.418Z,8.60
2022-09-07T22:49:16.172Z,6.53
2022-09-07T22:54:27.703Z,3.90
2022-09-07T22:56:54.303Z,5.10
2022-09-07T22:59:20.846Z,4.20
2022-09-07T23:01:47.413Z,4.53
2022-09-07T23:04:14.089Z,5.22
2022-09-07T23:06:42.624Z,9.57
2022-09-07T23:09:11.970Z,4.57
2022-09-07T23:11:39.181Z,2.35
2022-09-07T23:14:11.108Z,8.27
2022-09-07T23:16:37.757Z,5.18
2022-09-07T23:19:05.015Z,10.15
2022-09-07T23:21:31.660Z,6.43
2022-09-07T23:24:00.975Z,6.50
2022-09-07T23:26:30.448Z,7.22
2022-09-07T23:29:00.017Z,9.48
2022-09-07T23:31:28.197Z,7.68
2022-09-07T23:33:57.409Z,11.82
2022-09-07T23:36:24.886Z,8.52
2022-09-07T23:38:54.435Z,3.88
2022-09-07T23:41:21.181Z,6.70
2022-09-07T23:43:48.459Z,10.48
2022-09-07T23:46:16.033Z,10.57
2022-09-07T23:48:44.161Z,7.93
2022-09-07T23:51:11.544Z,6.57
2022-09-07T23:53:38.112Z,6.13
2022-09-07T23:56:05.301Z,12.40
2022-09-07T23:58:32.073Z,7.10
